الصفحة الرئيسية
METAR-TAF:

METAR-TAF

مطار :

Kwajalein, جزر مارشال

دائرة عرض: 08-43N, خط طول: 167-44E, ارتفاع: 3 متر

مراقبة الطقس الحالي

تاريخ ووقت الإصدار 15 دقيقة قبل الساعة 22:20UTC
ريح 11 عقدة من الشرق/الجنوب الشرقي
درجة الحرارة 30°درجة مئوية
الرطوبة 75%
ضغط 1013 hPa
الرؤية: 16.1 كم
سماء صافية

METAR: PKWA 052220Z AUTO 12011KT 10SM CLR 30/25 A2991 RMK AO2 T02970252

زمن: 10:35 (22:35 UTC)

توقعات

تاريخ ووقت الإصدار 5ساعات و 15 دقيقة قبل الساعة 17:20UTC
التوقعات صالحة من05 الساعة 18 UTC إلى 06 الساعة 18 UTC
ريح 12 عقدة من الشرق/الشمال الشرقي
الرؤية: 10 كم
غيوم متفرقة على ارتفاع 2000 قدم
غيوم متفرقة على ارتفاع 4000 قدم

TAF: PKWA 051720Z 0518/0618 07012KT P6SM SCT020 SCT040

أرصاد الطقس والتوقعات من أكثر من 4000 مطار (تقارير الطقس للمطار METAR والتنبؤ بالطقس بالمطارTAF).

المحطات المتاحة هي النقط الصفراء والحمراء على الخريطة.

حرك المؤشر فوق النقطة لمعرفة اسم المحطة.

ثم انقر لمعرفة أرصاد وتوقعات الطقس.

لتغيير الخارطة: اضغط على الأزرار الخضراء مع رمز الصليب الأسود للتكبير. على الزر الأخضر مع شرطة للتصغير، أو على الأسهم الخضراء للخرائط المجاورة.


METAR-TAF: